createdAt,value
2022-10-16T00:01:21.423Z,13.50
2022-10-16T00:03:48.825Z,13.50
2022-10-16T00:06:18.060Z,13.50
2022-10-16T00:08:45.787Z,13.40
2022-10-16T00:11:17.177Z,13.50
2022-10-16T00:13:45.723Z,13.50
2022-10-16T00:16:13.413Z,13.40
2022-10-16T00:18:40.790Z,13.40
2022-10-16T00:21:20.097Z,13.40
2022-10-16T00:23:47.065Z,13.40
2022-10-16T00:26:18.032Z,13.40
2022-10-16T00:28:48.099Z,13.40
2022-10-16T00:31:14.957Z,13.30
2022-10-16T00:33:42.104Z,13.30
2022-10-16T00:36:11.456Z,13.30
2022-10-16T00:38:38.918Z,13.30
2022-10-16T00:41:12.142Z,13.20
2022-10-16T00:44:30.043Z,13.30
2022-10-16T00:46:56.860Z,13.20
2022-10-16T00:49:23.639Z,13.20
2022-10-16T00:51:52.347Z,13.20
2022-10-16T00:54:24.629Z,13.20
2022-10-16T00:56:51.910Z,13.10
2022-10-16T00:59:26.629Z,13.10
2022-10-16T01:01:55.991Z,13.10
2022-10-16T01:04:23.943Z,13.10
2022-10-16T01:07:28.013Z,13.10
2022-10-16T01:10:33.905Z,13.00
2022-10-16T01:13:06.841Z,13.00
2022-10-16T01:15:53.176Z,13.00
2022-10-16T01:18:36.675Z,13.00
2022-10-16T01:21:07.614Z,13.00
2022-10-16T01:24:03.260Z,13.00
2022-10-16T01:26:43.089Z,13.00
2022-10-16T01:29:24.480Z,13.00
2022-10-16T01:31:57.012Z,12.90
2022-10-16T01:34:32.106Z,12.90
2022-10-16T01:37:06.110Z,12.90
2022-10-16T01:39:35.157Z,12.90
2022-10-16T01:42:09.510Z,12.90
2022-10-16T01:44:37.630Z,12.80
2022-10-16T01:47:05.530Z,12.80
2022-10-16T01:49:35.305Z,12.80
2022-10-16T01:52:06.709Z,12.80
2022-10-16T01:54:36.361Z,12.80
2022-10-16T01:57:06.774Z,12.70
2022-10-16T01:59:36.993Z,12.80
2022-10-16T02:02:07.511Z,12.80
2022-10-16T02:04:38.615Z,12.70
2022-10-16T02:07:05.726Z,12.80
2022-10-16T02:09:34.502Z,12.70
2022-10-16T02:12:06.524Z,12.70
2022-10-16T02:14:33.782Z,12.70
2022-10-16T02:17:00.511Z,12.70
2022-10-16T02:19:27.311Z,12.70
2022-10-16T02:22:06.173Z,12.70
2022-10-16T02:24:55.181Z,12.70
2022-10-16T02:27:34.497Z,12.70
2022-10-16T02:30:16.084Z,12.70
2022-10-16T02:32:44.588Z,12.70
2022-10-16T02:35:11.899Z,12.70
2022-10-16T02:37:39.950Z,12.60
2022-10-16T02:40:07.420Z,12.70
2022-10-16T02:42:35.959Z,12.60
2022-10-16T02:45:03.503Z,12.70
2022-10-16T02:47:30.340Z,12.60
2022-10-16T02:49:57.077Z,12.60
2022-10-16T02:52:24.081Z,12.60
2022-10-16T02:54:51.027Z,12.60
2022-10-16T02:57:18.221Z,12.60
2022-10-16T02:59:45.313Z,12.70
2022-10-16T03:02:12.178Z,12.60
2022-10-16T03:04:39.286Z,12.60
2022-10-16T03:07:09.190Z,12.60
2022-10-16T03:09:36.060Z,12.60
2022-10-16T03:12:03.139Z,12.60
2022-10-16T03:14:29.870Z,12.60
2022-10-16T03:16:56.730Z,12.60
2022-10-16T03:19:23.812Z,12.60
2022-10-16T03:21:50.542Z,12.60
2022-10-16T03:24:17.218Z,12.50
2022-10-16T03:26:46.924Z,12.50
2022-10-16T03:29:13.580Z,12.50
2022-10-16T03:31:40.413Z,12.50
2022-10-16T03:34:07.164Z,12.50
2022-10-16T03:36:33.960Z,12.50
2022-10-16T03:39:00.666Z,12.50
2022-10-16T03:41:27.417Z,12.50
2022-10-16T03:43:54.127Z,12.50
2022-10-16T03:46:20.881Z,12.40
2022-10-16T03:48:47.596Z,12.40
2022-10-16T03:51:14.410Z,12.40
2022-10-16T03:53:43.260Z,12.40
2022-10-16T03:56:10.150Z,12.40
2022-10-16T03:58:36.858Z,12.40
2022-10-16T04:01:03.722Z,12.40
2022-10-16T04:03:30.540Z,12.40
2022-10-16T04:05:57.653Z,12.40
2022-10-16T04:08:24.561Z,12.30
2022-10-16T04:10:51.433Z,12.30
2022-10-16T04:15:50.025Z,12.30
2022-10-16T04:18:16.788Z,12.30
2022-10-16T04:20:43.506Z,12.30
2022-10-16T04:23:10.293Z,12.30
2022-10-16T04:25:37.096Z,12.30
2022-10-16T04:28:03.801Z,12.30
2022-10-16T04:30:30.544Z,12.30
2022-10-16T04:32:57.360Z,12.20
2022-10-16T04:35:24.081Z,12.30
2022-10-16T04:37:51.496Z,12.20
2022-10-16T04:40:18.532Z,12.20
2022-10-16T04:42:45.402Z,12.20
2022-10-16T04:45:14.876Z,12.20
2022-10-16T04:47:46.692Z,12.20
2022-10-16T04:50:16.763Z,12.10
2022-10-16T04:52:43.496Z,12.10
2022-10-16T04:55:10.222Z,12.10
2022-10-16T04:57:36.952Z,12.10
2022-10-16T05:00:04.664Z,12.10
2022-10-16T05:02:31.509Z,12.10
2022-10-16T05:04:58.289Z,12.10
2022-10-16T05:07:25.167Z,12.10
2022-10-16T05:09:52.127Z,12.10
2022-10-16T05:12:19.097Z,12.10
2022-10-16T05:14:47.417Z,12.10
2022-10-16T05:17:14.150Z,12.10
2022-10-16T05:19:40.981Z,12.10
2022-10-16T05:22:07.772Z,12.10
2022-10-16T05:24:34.545Z,12.10
2022-10-16T05:27:01.289Z,12.00
2022-10-16T05:29:28.070Z,12.00
2022-10-16T05:31:54.743Z,12.00
2022-10-16T05:34:22.039Z,12.00
2022-10-16T05:36:48.817Z,12.00
2022-10-16T05:39:16.220Z,12.00
2022-10-16T05:41:43.563Z,11.90
2022-10-16T05:44:10.509Z,11.90
2022-10-16T05:46:37.323Z,12.00
2022-10-16T05:49:04.295Z,12.00
2022-10-16T05:51:31.241Z,11.90
2022-10-16T05:53:57.945Z,11.90
2022-10-16T05:56:24.688Z,11.90
2022-10-16T05:58:51.425Z,12.00
2022-10-16T06:01:19.764Z,12.00
2022-10-16T06:03:46.629Z,12.00
2022-10-16T06:06:15.892Z,12.00
2022-10-16T06:08:43.857Z,12.00
2022-10-16T06:11:16.277Z,12.00
2022-10-16T06:13:43.619Z,12.00
2022-10-16T06:16:11.689Z,12.00
2022-10-16T06:18:38.705Z,12.00
2022-10-16T06:21:17.628Z,11.90
2022-10-16T06:26:18.908Z,11.90
2022-10-16T06:28:45.902Z,11.90
2022-10-16T06:31:13.691Z,11.80
2022-10-16T06:33:40.969Z,11.80
2022-10-16T06:36:09.728Z,11.90
2022-10-16T06:38:37.089Z,11.90
2022-10-16T06:41:04.756Z,11.80
2022-10-16T06:43:33.215Z,11.80
2022-10-16T06:46:01.306Z,11.80
2022-10-16T06:48:28.983Z,11.80
2022-10-16T06:51:12.798Z,11.80
2022-10-16T06:54:01.226Z,11.80
2022-10-16T06:56:30.732Z,11.80
2022-10-16T06:58:57.490Z,11.90
2022-10-16T07:01:25.187Z,11.90
2022-10-16T07:03:52.181Z,11.90
2022-10-16T07:06:20.702Z,12.00
2022-10-16T07:08:48.192Z,11.90
2022-10-16T07:11:16.989Z,12.00
2022-10-16T07:13:45.097Z,12.00
2022-10-16T07:16:15.242Z,12.00
2022-10-16T07:18:43.846Z,12.00
2022-10-16T07:21:13.367Z,12.10
2022-10-16T07:23:40.562Z,12.10
2022-10-16T07:26:07.877Z,12.10
2022-10-16T07:28:35.368Z,12.10
2022-10-16T07:31:08.027Z,12.20
2022-10-16T07:33:36.121Z,12.20
2022-10-16T07:36:02.965Z,12.30
2022-10-16T07:38:29.702Z,12.40
2022-10-16T07:40:58.629Z,12.40
2022-10-16T07:43:25.935Z,12.30
2022-10-16T07:48:27.523Z,12.40
2022-10-16T07:50:58.449Z,12.50
2022-10-16T07:53:27.055Z,12.50
2022-10-16T07:55:57.778Z,12.50
2022-10-16T07:58:24.503Z,12.60
2022-10-16T08:00:51.284Z,12.60
2022-10-16T08:03:18.041Z,12.70
2022-10-16T08:05:44.798Z,12.80
2022-10-16T08:08:15.635Z,12.80
2022-10-16T08:10:42.519Z,12.90
2022-10-16T08:13:09.339Z,13.00
2022-10-16T08:15:36.278Z,13.00
2022-10-16T08:18:07.233Z,13.00
2022-10-16T08:20:34.516Z,13.00
2022-10-16T08:23:02.019Z,13.00
2022-10-16T08:25:30.801Z,13.10
2022-10-16T08:27:57.787Z,13.10
2022-10-16T08:30:25.440Z,13.20
2022-10-16T08:32:53.825Z,13.30
2022-10-16T08:35:20.583Z,13.30
2022-10-16T08:37:47.388Z,13.30
2022-10-16T08:40:20.793Z,13.40
2022-10-16T08:43:06.514Z,13.50
2022-10-16T08:45:36.219Z,13.40
2022-10-16T08:48:24.765Z,13.50
2022-10-16T08:50:52.901Z,13.50
2022-10-16T08:53:25.407Z,13.60
2022-10-16T08:55:53.756Z,13.60
2022-10-16T08:58:23.073Z,13.70
2022-10-16T09:01:13.732Z,13.80
2022-10-16T09:04:08.803Z,13.80
2022-10-16T09:06:50.283Z,13.80
2022-10-16T09:09:36.621Z,13.90
2022-10-16T09:12:24.277Z,14.00
2022-10-16T09:15:04.034Z,14.00
2022-10-16T09:17:43.041Z,14.00
2022-10-16T09:20:22.047Z,14.20
2022-10-16T09:22:48.800Z,14.20
2022-10-16T09:25:21.858Z,14.20
2022-10-16T09:27:53.668Z,14.30
2022-10-16T09:30:22.630Z,14.30
2022-10-16T09:32:52.924Z,14.30
2022-10-16T09:35:25.923Z,14.40
2022-10-16T09:37:54.751Z,14.40
2022-10-16T09:40:27.650Z,14.40
2022-10-16T09:43:08.719Z,14.70
2022-10-16T09:45:35.507Z,14.70
2022-10-16T09:48:12.216Z,14.70
2022-10-16T09:50:39.652Z,14.80
2022-10-16T09:53:11.469Z,14.90
2022-10-16T09:55:50.024Z,15.00
2022-10-16T09:58:16.850Z,15.00
2022-10-16T10:00:50.561Z,15.00
2022-10-16T10:03:48.638Z,15.00
2022-10-16T10:06:38.914Z,15.00
2022-10-16T10:09:26.703Z,14.90
2022-10-16T10:11:53.496Z,14.90
2022-10-16T10:14:37.309Z,14.90
2022-10-16T10:17:07.119Z,14.90
2022-10-16T10:19:39.996Z,15.10
2022-10-16T10:22:33.250Z,15.20
2022-10-16T10:25:08.889Z,15.20
2022-10-16T10:28:09.940Z,15.30
2022-10-16T10:30:50.319Z,15.30
2022-10-16T10:33:24.141Z,15.30
2022-10-16T10:35:50.823Z,15.40
2022-10-16T10:38:37.585Z,15.40
2022-10-16T10:41:04.280Z,15.60
2022-10-16T10:43:42.260Z,15.70
2022-10-16T10:46:16.047Z,15.70
2022-10-16T10:48:56.028Z,15.90
2022-10-16T10:52:01.963Z,15.90
2022-10-16T10:54:46.935Z,15.90
2022-10-16T10:57:31.486Z,16.00
2022-10-16T11:00:18.379Z,16.10
2022-10-16T11:03:15.056Z,16.10
2022-10-16T11:05:47.130Z,16.20
2022-10-16T11:08:23.266Z,16.10
2022-10-16T11:10:54.674Z,16.00
2022-10-16T11:13:33.578Z,16.00
2022-10-16T11:16:04.303Z,16.10
2022-10-16T11:18:54.133Z,16.30
2022-10-16T11:21:22.640Z,16.40
2022-10-16T11:23:59.258Z,16.50
2022-10-16T11:26:28.416Z,16.60
2022-10-16T11:28:57.792Z,16.70
2022-10-16T11:31:37.508Z,16.60
2022-10-16T11:34:13.004Z,16.60
2022-10-16T11:37:02.674Z,16.60
2022-10-16T11:39:31.042Z,16.70
2022-10-16T11:42:06.660Z,16.70
2022-10-16T11:44:42.561Z,16.70
2022-10-16T11:47:58.278Z,16.70
2022-10-16T11:50:32.525Z,16.70
2022-10-16T11:53:06.169Z,16.80
2022-10-16T11:55:46.880Z,17.00
2022-10-16T11:58:23.893Z,17.00
2022-10-16T12:01:17.402Z,17.10
2022-10-16T12:03:51.546Z,17.20
2022-10-16T12:06:37.463Z,17.50
2022-10-16T12:09:04.696Z,17.60
2022-10-16T12:11:37.911Z,17.70
2022-10-16T12:14:13.747Z,17.80
2022-10-16T12:16:54.022Z,17.80
2022-10-16T12:19:21.968Z,17.90
2022-10-16T12:21:49.146Z,18.00
2022-10-16T12:24:38.217Z,18.10
2022-10-16T12:27:07.543Z,18.20
2022-10-16T12:29:39.897Z,18.30
2022-10-16T12:32:44.986Z,18.40
2022-10-16T12:35:22.215Z,18.50
2022-10-16T12:37:49.292Z,18.60
2022-10-16T12:40:27.212Z,18.60
2022-10-16T12:42:54.171Z,18.60
2022-10-16T12:45:32.705Z,18.60
2022-10-16T12:48:02.072Z,18.60
2022-10-16T12:50:31.960Z,18.70
2022-10-16T12:52:59.950Z,18.80
2022-10-16T12:55:28.257Z,19.00
2022-10-16T12:58:07.593Z,19.10
2022-10-16T13:00:37.914Z,19.20
2022-10-16T13:03:29.743Z,19.30
2022-10-16T13:06:14.766Z,19.30
2022-10-16T13:09:12.639Z,19.30
2022-10-16T13:11:58.194Z,19.30
2022-10-16T13:14:39.956Z,19.40
2022-10-16T13:17:15.569Z,19.40
2022-10-16T13:19:57.656Z,19.50
2022-10-16T13:22:46.466Z,19.70
2022-10-16T13:25:19.309Z,19.70
2022-10-16T13:27:56.667Z,19.60
2022-10-16T13:30:29.908Z,19.60
2022-10-16T13:33:08.511Z,19.60
2022-10-16T13:35:36.961Z,19.70
2022-10-16T13:38:12.648Z,19.70
2022-10-16T13:40:58.929Z,19.70
2022-10-16T13:43:47.034Z,19.70
2022-10-16T13:46:21.494Z,19.70
2022-10-16T13:49:02.451Z,19.80
2022-10-16T13:51:30.049Z,19.80
2022-10-16T13:53:58.270Z,19.90
2022-10-16T13:56:30.962Z,20.00
2022-10-16T13:59:04.818Z,20.10
2022-10-16T14:01:43.376Z,20.10
2022-10-16T14:04:12.738Z,20.10
2022-10-16T14:06:44.874Z,20.30
2022-10-16T14:09:23.704Z,20.20
2022-10-16T14:11:53.105Z,20.20
2022-10-16T14:14:20.679Z,20.10
2022-10-16T14:16:47.880Z,20.20
2022-10-16T14:19:26.719Z,20.20
2022-10-16T14:21:53.827Z,20.30
2022-10-16T14:24:35.709Z,20.40
2022-10-16T14:27:03.453Z,20.50
2022-10-16T14:29:33.635Z,20.50
2022-10-16T14:32:02.783Z,20.60
2022-10-16T14:34:35.104Z,20.60
2022-10-16T14:39:40.905Z,20.30
2022-10-16T14:42:15.573Z,20.20
2022-10-16T14:44:42.325Z,20.30
2022-10-16T14:47:13.938Z,20.40
2022-10-16T14:49:42.629Z,20.40
2022-10-16T14:52:13.419Z,20.50
2022-10-16T14:54:41.090Z,20.40
2022-10-16T14:57:17.976Z,20.40
2022-10-16T14:59:48.091Z,20.30
2022-10-16T15:02:24.280Z,20.30
2022-10-16T15:04:51.214Z,20.30
2022-10-16T15:07:18.189Z,20.30
2022-10-16T15:09:48.236Z,20.30
2022-10-16T15:12:17.103Z,20.30
2022-10-16T15:14:44.158Z,20.30
2022-10-16T15:17:12.265Z,20.20
2022-10-16T15:19:39.193Z,20.20
2022-10-16T15:22:05.892Z,20.20
2022-10-16T15:24:32.666Z,20.30
2022-10-16T15:26:59.492Z,20.30
2022-10-16T15:29:26.188Z,20.30
2022-10-16T15:31:52.901Z,20.30
2022-10-16T15:34:20.661Z,20.30
2022-10-16T15:36:47.904Z,20.30
2022-10-16T15:39:17.388Z,20.40
2022-10-16T15:41:45.408Z,20.40
2022-10-16T15:44:12.281Z,20.40
2022-10-16T15:46:39.043Z,20.50
2022-10-16T15:49:07.929Z,20.40
2022-10-16T15:51:35.045Z,20.40
2022-10-16T15:54:02.877Z,20.30
2022-10-16T15:56:30.001Z,20.20
2022-10-16T15:58:58.228Z,20.30
2022-10-16T16:01:25.114Z,20.30
2022-10-16T16:03:55.529Z,20.30
2022-10-16T16:06:24.751Z,20.20
2022-10-16T16:08:52.412Z,20.10
2022-10-16T16:11:19.623Z,20.10
2022-10-16T16:13:46.566Z,20.10
2022-10-16T16:16:15.796Z,20.00
2022-10-16T16:18:43.486Z,20.00
2022-10-16T16:21:12.284Z,20.00
2022-10-16T16:23:39.195Z,20.00
2022-10-16T16:26:25.021Z,19.90
2022-10-16T16:28:51.815Z,19.90
2022-10-16T16:31:18.664Z,19.90
2022-10-16T16:33:45.881Z,19.90
2022-10-16T16:36:15.647Z,19.80
2022-10-16T16:38:42.909Z,19.80
2022-10-16T16:41:17.261Z,19.80
2022-10-16T16:43:44.330Z,19.70
2022-10-16T16:46:11.445Z,19.70
2022-10-16T16:48:38.728Z,19.60
2022-10-16T16:51:06.899Z,19.60
2022-10-16T16:53:37.291Z,19.60
2022-10-16T16:56:05.559Z,19.40
2022-10-16T16:58:32.904Z,19.40
2022-10-16T17:01:20.753Z,19.50
2022-10-16T17:03:53.325Z,19.50
2022-10-16T17:06:21.813Z,19.50
2022-10-16T17:08:49.675Z,19.50
2022-10-16T17:11:25.238Z,19.50
2022-10-16T17:13:56.750Z,19.40
2022-10-16T17:16:32.333Z,19.40
2022-10-16T17:19:19.025Z,19.30
2022-10-16T17:21:46.507Z,19.30
2022-10-16T17:24:13.372Z,19.30
2022-10-16T17:26:43.524Z,19.20
2022-10-16T17:29:11.793Z,19.20
2022-10-16T17:31:38.601Z,19.10
2022-10-16T17:34:07.944Z,19.20
2022-10-16T17:36:36.411Z,19.20
2022-10-16T17:39:08.513Z,19.10
2022-10-16T17:41:36.642Z,19.10
2022-10-16T17:44:05.535Z,19.00
2022-10-16T17:46:36.820Z,18.90
2022-10-16T17:49:06.936Z,18.80
2022-10-16T17:51:33.849Z,18.70
2022-10-16T17:54:01.651Z,18.70
2022-10-16T17:56:29.505Z,18.60
2022-10-16T17:58:59.887Z,18.60
2022-10-16T18:01:29.806Z,18.60
2022-10-16T18:04:07.107Z,18.60
2022-10-16T18:06:34.682Z,18.50
2022-10-16T18:09:01.747Z,18.50
2022-10-16T18:11:29.154Z,18.50
2022-10-16T18:13:57.309Z,18.40
2022-10-16T18:16:25.686Z,18.40
2022-10-16T18:18:52.516Z,18.40
2022-10-16T18:21:20.360Z,18.40
2022-10-16T18:23:51.745Z,18.30
2022-10-16T18:26:19.661Z,18.30
2022-10-16T18:28:46.648Z,18.20
2022-10-16T18:31:15.535Z,18.20
2022-10-16T18:33:48.225Z,18.20
2022-10-16T18:36:16.808Z,18.20
2022-10-16T18:38:43.708Z,18.10
2022-10-16T18:41:10.826Z,18.10
2022-10-16T18:43:39.363Z,18.00
2022-10-16T18:46:08.427Z,18.00
2022-10-16T18:48:35.382Z,18.00
2022-10-16T18:51:14.439Z,18.00
2022-10-16T18:53:42.908Z,18.00
2022-10-16T18:56:10.182Z,17.90
2022-10-16T18:58:38.428Z,17.90
2022-10-16T19:01:06.493Z,17.90
2022-10-16T19:03:34.027Z,17.80
2022-10-16T19:06:02.748Z,17.70
2022-10-16T19:08:32.195Z,17.70
2022-10-16T19:11:04.115Z,17.60
2022-10-16T19:13:31.148Z,17.60
2022-10-16T19:16:03.873Z,17.60
2022-10-16T19:18:43.054Z,17.60
2022-10-16T19:21:12.266Z,17.50
2022-10-16T19:23:40.711Z,17.60
2022-10-16T19:26:11.066Z,17.50
2022-10-16T19:28:38.390Z,17.50
2022-10-16T19:31:08.005Z,17.50
2022-10-16T19:33:35.167Z,17.50
2022-10-16T19:36:09.370Z,17.40
2022-10-16T19:38:36.105Z,17.40
2022-10-16T19:41:21.268Z,17.30
2022-10-16T19:43:48.098Z,17.30
2022-10-16T19:46:17.645Z,17.30
2022-10-16T19:48:45.121Z,17.20
2022-10-16T19:51:14.811Z,17.20
2022-10-16T19:53:41.623Z,17.20
2022-10-16T19:56:16.259Z,17.20
2022-10-16T19:58:44.033Z,17.10
2022-10-16T20:01:11.634Z,17.10
2022-10-16T20:03:41.211Z,17.00
2022-10-16T20:06:08.897Z,17.00
2022-10-16T20:08:40.323Z,17.00
2022-10-16T20:11:10.779Z,16.90
2022-10-16T20:13:41.357Z,17.00
2022-10-16T20:16:10.074Z,16.90
2022-10-16T20:18:37.608Z,16.90
2022-10-16T20:21:10.284Z,16.80
2022-10-16T20:23:37.296Z,16.80
2022-10-16T20:26:04.442Z,16.80
2022-10-16T20:28:31.840Z,16.80
2022-10-16T20:30:58.975Z,16.80
2022-10-16T20:33:25.749Z,16.70
2022-10-16T20:35:52.480Z,16.70
2022-10-16T20:38:19.333Z,16.70
2022-10-16T20:40:47.865Z,16.60
2022-10-16T20:43:17.068Z,16.60
2022-10-16T20:45:44.742Z,16.60
2022-10-16T20:48:13.272Z,16.60
2022-10-16T20:50:41.252Z,16.60
2022-10-16T20:53:08.520Z,16.50
2022-10-16T20:55:37.255Z,16.50
2022-10-16T20:58:06.986Z,16.50
2022-10-16T21:00:33.843Z,16.50
2022-10-16T21:03:00.671Z,16.40
2022-10-16T21:05:28.960Z,16.40
2022-10-16T21:07:56.019Z,16.40
2022-10-16T21:10:22.964Z,16.30
2022-10-16T21:12:54.999Z,16.30
2022-10-16T21:15:22.308Z,16.30
2022-10-16T21:17:49.141Z,16.30
2022-10-16T21:20:16.471Z,16.30
2022-10-16T21:22:43.338Z,16.20
2022-10-16T21:25:10.168Z,16.20
2022-10-16T21:27:38.432Z,16.20
2022-10-16T21:30:07.253Z,16.20
2022-10-16T21:32:39.644Z,16.20
2022-10-16T21:35:07.241Z,16.10
2022-10-16T21:37:34.181Z,16.10
2022-10-16T21:40:00.972Z,16.10
2022-10-16T21:42:28.090Z,16.10
2022-10-16T21:44:55.099Z,16.10
2022-10-16T21:47:21.839Z,16.00
2022-10-16T21:49:48.797Z,15.90
2022-10-16T21:52:16.196Z,16.00
2022-10-16T21:54:42.932Z,15.90
2022-10-16T21:57:09.670Z,15.90
2022-10-16T21:59:36.354Z,15.90
2022-10-16T22:02:03.318Z,15.90
2022-10-16T22:04:30.178Z,15.90
2022-10-16T22:06:56.898Z,15.80
2022-10-16T22:09:23.699Z,15.80
2022-10-16T22:11:50.986Z,15.80
2022-10-16T22:14:19.516Z,15.80
2022-10-16T22:16:46.926Z,15.80
2022-10-16T22:19:15.800Z,15.80
2022-10-16T22:21:43.563Z,15.80
2022-10-16T22:24:10.545Z,15.70
2022-10-16T22:26:38.200Z,15.70
2022-10-16T22:29:05.827Z,15.70
2022-10-16T22:31:33.389Z,15.70
2022-10-16T22:34:02.255Z,15.70
2022-10-16T22:36:29.820Z,15.60
2022-10-16T22:38:56.599Z,15.60
2022-10-16T22:41:24.886Z,15.70
2022-10-16T22:43:52.059Z,15.70
2022-10-16T22:46:24.110Z,15.60
2022-10-16T22:48:51.369Z,15.60
2022-10-16T22:51:19.051Z,15.50
2022-10-16T22:53:47.359Z,15.60
2022-10-16T22:56:15.615Z,15.60
2022-10-16T22:58:42.528Z,15.50
2022-10-16T23:01:18.722Z,15.60
2022-10-16T23:03:45.493Z,15.50
2022-10-16T23:06:12.277Z,15.60
2022-10-16T23:08:39.294Z,15.50
2022-10-16T23:11:10.936Z,15.50
2022-10-16T23:13:45.646Z,15.50
2022-10-16T23:16:14.698Z,15.50
2022-10-16T23:18:42.254Z,15.50
2022-10-16T23:21:11.891Z,15.60
2022-10-16T23:23:39.745Z,15.50
2022-10-16T23:26:14.304Z,15.50
2022-10-16T23:28:41.561Z,15.50
2022-10-16T23:31:09.435Z,15.50
2022-10-16T23:33:37.210Z,15.50
2022-10-16T23:36:09.797Z,15.50
2022-10-16T23:38:36.679Z,15.50
2022-10-16T23:41:03.982Z,15.50
2022-10-16T23:43:30.757Z,15.50
2022-10-16T23:45:57.690Z,15.50
2022-10-16T23:48:24.607Z,15.50
2022-10-16T23:50:51.705Z,15.50
2022-10-16T23:53:18.695Z,15.50
2022-10-16T23:55:45.568Z,15.40
2022-10-16T23:58:12.537Z,15.40
